Decoded Metar for YPGV (GOVE AIRPORT in AUSTRALIA) (IATA:N/A) | Meteo·Mobile Aviation Weather
aviador You're here:

YPGV Decoded Metar

GOVE AIRPORT in AUSTRALIA
Report Time2018-10-24 04:30:00
UTC Time2018-10-24 05:07:58
Flight Rules vfr VFR
Wind060° at 10 kt
W.Decomp.*RWY 13: 2.8 kt HW 9.6 kt LCW
W.Rank060° ranks 14
Current wind is above 060° avg. (7.9)
Visibility9999 m
Phenomena:N/A
Clouds:Scattered 028 Hf
Expected CloudBase > 3,600 ft AGL from Temp-Dew spread
CeilingNone
Temp31°C (ISA +16)
Dew Point22°C (59% RH)
Heat Index34.6°C
QNH1011 hPa
Density Alt2,467 ft
Elevation180 ft
Report Wrong Elevation
Raw Report
YPGV 240430Z 06010KT 9999 SCT028 31/22 Q1011=

Extra information for YPGV:More info

Metar Taf Metar & Taf Last 4 Metars F.Rules Stats Wind Profile Meteogram Temp Stats Airport Information Weather charts Add Link Nearby VenuesMetar ALERT Operation Metar Decoded Social comments